createdAt,value
2019-02-07T00:00:58.982Z,5.85
2019-02-07T00:03:26.862Z,5.33
2019-02-07T00:06:13.728Z,5.92
2019-02-07T00:08:41.581Z,4.75
2019-02-07T00:11:09.850Z,6.17
2019-02-07T00:13:37.800Z,5.90
2019-02-07T00:16:05.666Z,4.20
2019-02-07T00:18:33.516Z,5.03
2019-02-07T00:21:03.162Z,5.17
2019-02-07T00:23:31.138Z,4.80
2019-02-07T00:25:59.406Z,5.00
2019-02-07T00:31:03.428Z,4.70
2019-02-07T00:33:31.770Z,5.25
2019-02-07T00:36:11.621Z,4.92
2019-02-07T00:38:29.479Z,5.72
2019-02-07T00:40:57.341Z,4.95
2019-02-07T00:43:58.620Z,5.28
2019-02-07T00:46:14.749Z,4.85
2019-02-07T00:48:42.958Z,5.37
2019-02-07T00:51:10.873Z,4.97
2019-02-07T00:53:42.130Z,4.60
2019-02-07T00:56:10.070Z,4.40
2019-02-07T00:58:38.003Z,4.67
2019-02-07T01:01:40.791Z,4.78
2019-02-07T01:03:57.274Z,5.05
2019-02-07T01:06:25.199Z,4.62
2019-02-07T01:08:53.124Z,4.95
2019-02-07T01:11:21.130Z,5.35
2019-02-07T01:13:49.037Z,4.80
2019-02-07T01:16:16.929Z,5.72
2019-02-07T01:18:44.889Z,4.60
2019-02-07T01:21:12.770Z,4.80
2019-02-07T01:26:27.724Z,4.80
2019-02-07T01:28:56.465Z,4.58
2019-02-07T01:31:24.417Z,5.00
2019-02-07T01:33:52.314Z,4.47
2019-02-07T01:39:10.493Z,4.28
2019-02-07T01:41:40.346Z,5.42
2019-02-07T01:44:10.812Z,4.85
2019-02-07T01:46:42.700Z,4.92
2019-02-07T01:54:58.717Z,4.60
2019-02-07T01:57:28.317Z,5.65
2019-02-07T01:59:56.298Z,4.90
2019-02-07T02:02:24.541Z,5.25
2019-02-07T02:04:52.407Z,5.33
2019-02-07T02:07:20.441Z,4.92
2019-02-07T02:09:48.278Z,4.58
2019-02-07T02:12:16.137Z,4.53
2019-02-07T02:14:44.010Z,4.67
2019-02-07T02:17:30.857Z,5.12
2019-02-07T02:20:17.781Z,4.28
2019-02-07T02:22:45.694Z,5.15
2019-02-07T02:25:14.463Z,5.33
2019-02-07T02:27:42.516Z,5.87
2019-02-07T02:35:41.012Z,5.33
2019-02-07T02:38:08.909Z,5.37
2019-02-07T02:40:36.718Z,5.20
2019-02-07T02:43:06.882Z,5.75
2019-02-07T02:45:37.595Z,5.28
2019-02-07T02:48:04.479Z,5.05
2019-02-07T02:50:32.330Z,4.92
2019-02-07T02:53:00.225Z,5.22
2019-02-07T02:55:47.054Z,5.08
2019-02-07T02:58:14.949Z,6.28
2019-02-07T03:01:01.816Z,5.50
2019-02-07T03:03:41.992Z,5.90
2019-02-07T03:06:30.118Z,5.90
2019-02-07T03:09:16.965Z,5.55
2019-02-07T03:12:07.119Z,5.50
2019-02-07T03:14:56.044Z,6.05
2019-02-07T03:20:16.377Z,6.28
2019-02-07T03:23:03.253Z,6.53
2019-02-07T03:25:50.169Z,5.70
2019-02-07T03:28:37.138Z,5.17
2019-02-07T03:31:24.224Z,5.42
2019-02-07T03:34:03.662Z,5.20
2019-02-07T03:36:38.769Z,5.42
2019-02-07T03:39:26.402Z,6.08
2019-02-07T03:42:13.590Z,5.72
2019-02-07T03:45:02.802Z,6.58
2019-02-07T03:47:37.954Z,6.03
2019-02-07T03:50:24.943Z,5.87
2019-02-07T03:53:14.154Z,6.03
2019-02-07T03:56:02.155Z,5.75
2019-02-07T03:58:49.008Z,5.67
2019-02-07T04:01:35.868Z,6.50
2019-02-07T04:07:18.789Z,5.90
2019-02-07T04:10:05.641Z,5.95
2019-02-07T04:12:54.526Z,7.08
2019-02-07T04:15:41.370Z,6.15
2019-02-07T04:21:38.449Z,6.47
2019-02-07T04:24:25.139Z,5.75
2019-02-07T04:27:02.391Z,5.92
2019-02-07T04:29:49.214Z,5.25
2019-02-07T04:32:36.078Z,5.70
2019-02-07T04:38:30.601Z,5.75
2019-02-07T04:41:17.535Z,5.10
2019-02-07T04:44:23.482Z,5.90
2019-02-07T04:47:02.288Z,6.30
2019-02-07T04:49:49.166Z,6.53
2019-02-07T04:52:37.032Z,7.05
2019-02-07T04:58:32.474Z,5.80
2019-02-07T05:01:19.348Z,6.22
2019-02-07T05:04:06.242Z,6.37
2019-02-07T05:06:53.343Z,7.03
2019-02-07T05:09:40.481Z,5.55
2019-02-07T05:12:27.332Z,6.20
2019-02-07T05:15:14.393Z,6.10
2019-02-07T05:18:01.281Z,6.28
2019-02-07T05:20:45.910Z,6.75
2019-02-07T05:23:32.912Z,6.28
2019-02-07T05:29:31.605Z,6.03
2019-02-07T05:32:08.702Z,6.10
2019-02-07T05:34:55.565Z,5.37
2019-02-07T05:37:42.379Z,5.47
2019-02-07T05:40:29.514Z,5.15
2019-02-07T05:43:16.325Z,5.00
2019-02-07T05:46:03.193Z,5.10
2019-02-07T05:48:50.079Z,5.65
2019-02-07T05:51:36.907Z,5.10
2019-02-07T05:54:15.596Z,5.30
2019-02-07T05:56:52.804Z,4.60
2019-02-07T05:59:39.621Z,5.15
2019-02-07T06:02:26.412Z,4.28
2019-02-07T06:05:13.233Z,4.70
2019-02-07T06:08:00.046Z,3.55
2019-02-07T06:10:46.866Z,4.67
2019-02-07T06:13:33.762Z,4.58
2019-02-07T06:16:21.334Z,5.08
2019-02-07T06:19:08.133Z,4.83
2019-02-07T06:21:43.866Z,5.05
2019-02-07T06:24:30.667Z,5.22
2019-02-07T06:27:17.499Z,5.25
2019-02-07T06:29:51.889Z,6.05
2019-02-07T06:32:38.721Z,5.40
2019-02-07T06:35:25.623Z,5.78
2019-02-07T06:38:12.450Z,5.17
2019-02-07T06:40:59.258Z,5.72
2019-02-07T06:43:46.199Z,4.60
2019-02-07T06:46:33.114Z,5.42
2019-02-07T06:49:09.275Z,5.30
2019-02-07T06:51:56.174Z,5.33
2019-02-07T06:54:43.005Z,4.75
2019-02-07T06:57:29.919Z,5.60
2019-02-07T07:00:16.765Z,4.95
2019-02-07T07:03:03.670Z,5.58
2019-02-07T07:05:50.461Z,4.90
2019-02-07T07:08:37.289Z,5.40
2019-02-07T07:11:24.112Z,6.65
2019-02-07T07:14:19.665Z,5.78
2019-02-07T07:17:06.702Z,4.47
2019-02-07T07:19:53.533Z,5.30
2019-02-07T07:22:40.485Z,5.50
2019-02-07T07:25:27.556Z,4.97
2019-02-07T07:28:14.392Z,5.33
2019-02-07T07:31:01.194Z,6.17
2019-02-07T07:33:48.021Z,5.75
2019-02-07T07:36:27.192Z,7.62
2019-02-07T07:39:14.014Z,5.80
2019-02-07T07:42:00.841Z,6.67
2019-02-07T07:44:47.699Z,6.92
2019-02-07T07:47:35.698Z,6.83
2019-02-07T07:50:10.457Z,6.20
2019-02-07T07:52:57.240Z,6.42
2019-02-07T07:55:44.139Z,7.25
2019-02-07T07:58:30.954Z,7.78
2019-02-07T08:01:17.798Z,6.60
2019-02-07T08:04:04.601Z,6.30
2019-02-07T08:06:40.204Z,7.03
2019-02-07T08:12:36.538Z,7.72
2019-02-07T08:18:18.506Z,6.80
2019-02-07T08:21:05.678Z,6.97
2019-02-07T08:23:52.514Z,7.92
2019-02-07T08:26:39.345Z,7.05
2019-02-07T08:29:26.165Z,7.70
2019-02-07T08:32:13.006Z,6.97
2019-02-07T08:34:59.817Z,7.50
2019-02-07T08:37:46.659Z,6.25
2019-02-07T08:40:33.893Z,7.35
2019-02-07T08:43:20.736Z,7.10
2019-02-07T08:46:02.346Z,7.12
2019-02-07T08:48:49.229Z,8.00
2019-02-07T08:51:36.137Z,6.70
2019-02-07T08:54:23.254Z,7.60
2019-02-07T08:57:10.409Z,6.55
2019-02-07T08:59:57.273Z,7.85
2019-02-07T09:02:51.524Z,8.05
2019-02-07T09:05:32.682Z,9.83
2019-02-07T09:08:19.510Z,7.40
2019-02-07T09:11:06.315Z,8.95
2019-02-07T09:13:53.859Z,7.50
2019-02-07T09:16:40.825Z,6.65
2019-02-07T09:19:27.697Z,8.00
2019-02-07T09:22:14.515Z,8.08
2019-02-07T09:25:01.366Z,7.72
2019-02-07T09:27:41.421Z,7.95
2019-02-07T09:33:26.804Z,6.70
2019-02-07T09:36:12.945Z,7.60
2019-02-07T09:38:59.768Z,8.20
2019-02-07T09:41:46.583Z,6.60
2019-02-07T09:44:33.569Z,6.72
2019-02-07T09:47:09.001Z,6.58
2019-02-07T09:49:55.945Z,7.17
2019-02-07T09:52:42.896Z,7.47
2019-02-07T09:55:29.847Z,6.20
2019-02-07T09:58:16.714Z,7.65
2019-02-07T10:01:03.562Z,6.72
2019-02-07T10:03:50.405Z,6.25
2019-02-07T10:06:39.058Z,6.20
2019-02-07T10:12:05.539Z,5.25
2019-02-07T10:14:42.090Z,5.78
2019-02-07T10:17:28.910Z,5.12
2019-02-07T10:20:15.781Z,4.75
2019-02-07T10:23:02.612Z,5.47
2019-02-07T10:25:51.301Z,6.28
2019-02-07T10:28:38.005Z,5.15
2019-02-07T10:31:24.822Z,6.95
2019-02-07T10:34:11.938Z,6.03
2019-02-07T10:36:58.798Z,6.17
2019-02-07T10:39:38.454Z,5.20
2019-02-07T10:42:25.293Z,6.22
2019-02-07T10:45:12.107Z,6.20
2019-02-07T10:47:59.370Z,5.62
2019-02-07T10:50:46.181Z,5.22
2019-02-07T10:53:25.574Z,5.67
2019-02-07T10:56:12.385Z,5.58
2019-02-07T10:58:53.166Z,5.33
2019-02-07T11:01:39.987Z,5.80
2019-02-07T11:04:26.827Z,5.90
2019-02-07T11:07:13.682Z,5.67
2019-02-07T11:10:00.534Z,5.62
2019-02-07T11:12:47.478Z,4.75
2019-02-07T11:15:36.045Z,5.62
2019-02-07T11:21:02.072Z,5.37
2019-02-07T11:23:48.919Z,4.97
2019-02-07T11:26:35.782Z,4.50
2019-02-07T11:29:22.637Z,4.87
2019-02-07T11:32:09.961Z,5.08
2019-02-07T11:34:57.041Z,4.17
2019-02-07T11:37:43.834Z,4.40
2019-02-07T11:43:16.015Z,4.65
2019-02-07T11:46:02.885Z,3.67
2019-02-07T11:48:49.721Z,4.08
2019-02-07T11:51:34.740Z,4.05
2019-02-07T11:54:21.603Z,3.70
2019-02-07T11:57:08.411Z,3.37
2019-02-07T11:59:55.300Z,3.30
2019-02-07T12:02:42.150Z,3.95
2019-02-07T12:05:28.999Z,3.25
2019-02-07T12:08:17.525Z,4.50
2019-02-07T12:11:04.381Z,3.80
2019-02-07T12:13:42.227Z,3.80
2019-02-07T12:16:29.070Z,3.08
2019-02-07T12:19:18.211Z,3.22
2019-02-07T12:22:04.574Z,3.80
2019-02-07T12:24:51.378Z,2.85
2019-02-07T12:27:38.222Z,3.22
2019-02-07T12:30:27.576Z,3.22
2019-02-07T12:33:14.419Z,2.62
2019-02-07T12:35:50.059Z,3.30
2019-02-07T12:38:36.874Z,3.15
2019-02-07T12:41:25.075Z,2.42
2019-02-07T12:44:11.908Z,3.10
2019-02-07T12:46:58.718Z,2.85
2019-02-07T12:49:41.578Z,2.70
2019-02-07T12:52:28.634Z,3.00
2019-02-07T12:55:15.891Z,3.65
2019-02-07T12:58:02.786Z,3.52
2019-02-07T13:00:49.742Z,2.60
2019-02-07T13:03:36.547Z,3.92
2019-02-07T13:06:15.017Z,2.90
2019-02-07T13:09:02.135Z,3.58
2019-02-07T13:11:40.071Z,3.37
2019-02-07T13:17:21.413Z,2.83
2019-02-07T13:20:08.286Z,3.35
2019-02-07T13:22:55.141Z,3.87
2019-02-07T13:25:37.946Z,3.33
2019-02-07T13:28:24.743Z,3.25
2019-02-07T13:31:11.570Z,2.87
2019-02-07T13:33:58.382Z,3.00
2019-02-07T13:36:45.232Z,3.85
2019-02-07T13:39:32.349Z,2.67
2019-02-07T13:42:19.388Z,3.75
2019-02-07T13:45:06.247Z,4.10
2019-02-07T13:47:53.096Z,3.10
2019-02-07T13:50:39.973Z,2.98
2019-02-07T13:53:26.832Z,2.90
2019-02-07T13:56:13.668Z,2.62
2019-02-07T13:59:00.558Z,2.67
2019-02-07T14:01:49.279Z,3.20
2019-02-07T14:04:36.097Z,3.10
2019-02-07T14:07:22.923Z,2.85
2019-02-07T14:10:09.772Z,3.77
2019-02-07T14:12:56.597Z,3.70
2019-02-07T14:15:43.441Z,2.60
2019-02-07T14:18:30.261Z,3.12
2019-02-07T14:21:17.238Z,3.35
2019-02-07T14:24:04.117Z,2.90
2019-02-07T14:26:50.909Z,3.55
2019-02-07T14:29:37.747Z,3.55
2019-02-07T14:32:22.732Z,4.10
2019-02-07T14:35:09.537Z,3.50
2019-02-07T14:37:56.393Z,3.37
2019-02-07T14:40:43.608Z,2.90
2019-02-07T14:43:18.457Z,2.92
2019-02-07T14:45:55.705Z,3.27
2019-02-07T14:48:24.740Z,2.90
2019-02-07T14:54:00.809Z,2.90
2019-02-07T14:56:29.944Z,2.80
2019-02-07T14:58:57.785Z,3.15
2019-02-07T15:01:25.606Z,2.77
2019-02-07T15:03:53.453Z,3.00
2019-02-07T15:06:21.249Z,3.02
2019-02-07T15:08:49.097Z,2.70
2019-02-07T15:11:17.138Z,2.77
2019-02-07T15:13:45.177Z,3.40
2019-02-07T15:16:13.046Z,2.47
2019-02-07T15:18:40.866Z,2.65
2019-02-07T15:21:08.723Z,2.83
2019-02-07T15:23:36.599Z,2.90
2019-02-07T15:28:58.877Z,2.58
2019-02-07T15:31:26.811Z,2.37
2019-02-07T15:33:54.627Z,3.55
2019-02-07T15:36:22.490Z,2.22
2019-02-07T15:38:50.350Z,2.40
2019-02-07T15:41:18.265Z,3.15
2019-02-07T15:43:46.086Z,2.05
2019-02-07T15:46:13.945Z,2.47
2019-02-07T15:48:41.796Z,2.90
2019-02-07T15:51:09.821Z,2.52
2019-02-07T15:53:37.648Z,4.80
2019-02-07T15:56:05.578Z,2.30
2019-02-07T15:58:43.642Z,2.27
2019-02-07T16:01:19.013Z,2.37
2019-02-07T16:04:05.826Z,3.47
2019-02-07T16:06:33.683Z,2.55
2019-02-07T16:12:10.790Z,2.50
2019-02-07T16:14:40.362Z,2.70
2019-02-07T16:17:08.287Z,2.67
2019-02-07T16:19:36.158Z,2.87
2019-02-07T16:24:58.159Z,2.15
2019-02-07T16:27:26.174Z,2.45
2019-02-07T16:29:54.021Z,2.25
2019-02-07T16:38:09.962Z,2.45
2019-02-07T16:40:37.790Z,2.65
2019-02-07T16:43:05.651Z,2.00
2019-02-07T16:45:33.487Z,2.40
2019-02-07T16:48:03.146Z,2.92
2019-02-07T16:50:31.049Z,2.20
2019-02-07T16:53:01.493Z,3.33
2019-02-07T16:55:28.437Z,2.40
2019-02-07T16:57:56.322Z,2.60
2019-02-07T17:00:24.494Z,2.30
2019-02-07T17:05:59.835Z,2.12
2019-02-07T17:08:27.729Z,2.77
2019-02-07T17:10:55.627Z,2.37
2019-02-07T17:13:23.492Z,2.95
2019-02-07T17:15:51.315Z,3.70
2019-02-07T17:18:19.157Z,2.02
2019-02-07T17:20:47.072Z,2.62
2019-02-07T17:23:14.939Z,2.55
2019-02-07T17:25:42.791Z,2.30
2019-02-07T17:28:12.366Z,2.00
2019-02-07T17:30:40.281Z,3.62
2019-02-07T17:33:08.135Z,2.25
2019-02-07T17:35:36.045Z,2.58
2019-02-07T17:43:58.594Z,2.10
2019-02-07T17:46:26.571Z,2.22
2019-02-07T17:48:56.551Z,2.08
2019-02-07T17:51:26.718Z,2.00
2019-02-07T17:53:54.850Z,2.47
2019-02-07T17:56:23.603Z,2.60
2019-02-07T17:58:53.901Z,2.15
2019-02-07T18:01:21.865Z,2.05
2019-02-07T18:03:56.919Z,2.70
2019-02-07T18:06:24.958Z,1.90
2019-02-07T18:08:52.958Z,2.37
2019-02-07T18:11:21.008Z,2.70
2019-02-07T18:13:48.877Z,2.30
2019-02-07T18:16:18.815Z,2.55
2019-02-07T18:18:46.741Z,2.90
2019-02-07T18:21:14.978Z,2.25
2019-02-07T18:24:01.996Z,2.10
2019-02-07T18:26:29.944Z,3.10
2019-02-07T18:31:31.801Z,3.00
2019-02-07T18:36:53.640Z,2.42
2019-02-07T18:39:21.473Z,2.80
2019-02-07T18:47:28.552Z,2.30
2019-02-07T18:52:32.574Z,2.25
2019-02-07T18:55:00.483Z,2.40
2019-02-07T19:00:22.219Z,3.00
2019-02-07T19:05:39.096Z,2.33
2019-02-07T19:10:40.911Z,2.00
2019-02-07T19:13:09.757Z,1.87
2019-02-07T19:15:38.957Z,2.42
2019-02-07T19:18:06.895Z,2.10
2019-02-07T19:20:35.203Z,2.10
2019-02-07T19:26:29.796Z,2.45
2019-02-07T19:31:39.455Z,1.90
2019-02-07T19:34:07.506Z,2.60
2019-02-07T19:36:35.587Z,1.80
2019-02-07T19:41:57.673Z,2.10
2019-02-07T19:44:47.008Z,1.82
2019-02-07T19:47:14.984Z,2.10
2019-02-07T19:49:43.070Z,2.10
2019-02-07T19:52:12.919Z,2.10
2019-02-07T19:54:41.377Z,2.60
2019-02-07T19:57:11.019Z,1.95
2019-02-07T19:59:38.976Z,2.10
2019-02-07T20:02:07.004Z,2.40
2019-02-07T20:04:37.156Z,2.15
2019-02-07T20:09:41.799Z,2.20
2019-02-07T20:12:09.738Z,2.40
2019-02-07T20:14:37.669Z,2.20
2019-02-07T20:17:05.797Z,2.30
2019-02-07T20:19:33.688Z,2.35
2019-02-07T20:22:03.360Z,2.00
2019-02-07T20:24:33.014Z,2.40
2019-02-07T20:27:00.998Z,2.25
2019-02-07T20:32:36.502Z,2.30
2019-02-07T20:35:07.356Z,2.45
2019-02-07T20:37:54.335Z,1.82
2019-02-07T20:43:43.649Z,2.22
2019-02-07T20:46:00.353Z,2.10
2019-02-07T20:48:28.382Z,2.10
2019-02-07T20:50:57.680Z,2.15
2019-02-07T20:56:00.758Z,2.40
2019-02-07T20:58:47.666Z,2.72
2019-02-07T21:03:54.145Z,3.00
2019-02-07T21:09:10.690Z,1.70
2019-02-07T21:11:38.611Z,1.92
2019-02-07T21:14:06.617Z,2.25
2019-02-07T21:16:36.314Z,2.10
2019-02-07T21:19:04.411Z,2.00
2019-02-07T21:21:34.634Z,2.22
2019-02-07T21:26:50.534Z,2.20
2019-02-07T21:29:20.150Z,2.20
2019-02-07T21:31:48.507Z,2.45
2019-02-07T21:34:16.449Z,2.15
2019-02-07T21:36:44.391Z,1.85
2019-02-07T21:41:58.546Z,2.30
2019-02-07T21:44:16.019Z,2.08
2019-02-07T21:47:02.923Z,2.33
2019-02-07T21:49:30.935Z,2.90
2019-02-07T21:51:58.871Z,2.67
2019-02-07T21:54:26.792Z,3.05
2019-02-07T21:57:14.619Z,2.50
2019-02-07T21:59:42.605Z,2.30
2019-02-07T22:02:12.773Z,2.80
2019-02-07T22:04:40.695Z,2.60
2019-02-07T22:07:08.570Z,3.10
2019-02-07T22:09:36.502Z,2.12
2019-02-07T22:14:45.270Z,2.45
2019-02-07T22:17:13.200Z,2.30
2019-02-07T22:19:41.137Z,2.35
2019-02-07T22:25:03.461Z,2.40
2019-02-07T22:27:31.350Z,2.60
2019-02-07T22:30:00.099Z,2.20
2019-02-07T22:32:28.595Z,2.30
2019-02-07T22:34:56.498Z,2.10
2019-02-07T22:37:24.530Z,2.47
2019-02-07T22:39:52.760Z,1.90
2019-02-07T22:42:20.714Z,2.25
2019-02-07T22:44:48.661Z,2.00
2019-02-07T22:47:16.933Z,1.82
2019-02-07T22:49:44.833Z,2.10
2019-02-07T22:52:14.838Z,1.75
2019-02-07T22:54:42.776Z,2.22
2019-02-07T22:57:11.079Z,1.70
2019-02-07T22:59:38.918Z,2.40
2019-02-07T23:04:44.667Z,1.80
2019-02-07T23:07:12.551Z,2.42
2019-02-07T23:09:40.450Z,2.05
2019-02-07T23:12:08.295Z,2.20
2019-02-07T23:14:36.504Z,2.27
2019-02-07T23:22:35.754Z,2.05
2019-02-07T23:28:11.260Z,2.50
2019-02-07T23:30:59.593Z,2.52
2019-02-07T23:33:27.950Z,1.92
2019-02-07T23:35:55.804Z,2.15
2019-02-07T23:38:25.425Z,2.20
2019-02-07T23:43:46.059Z,1.92
2019-02-07T23:46:11.667Z,2.30
2019-02-07T23:48:39.846Z,2.05
2019-02-07T23:51:07.825Z,2.20
2019-02-07T23:53:36.181Z,2.10
2019-02-07T23:59:30.569Z,2.35
